createdAt,value
2022-10-20T00:01:00.885Z,14.68
2022-10-20T00:03:28.332Z,11.98
2022-10-20T00:06:06.093Z,14.55
2022-10-20T00:08:32.969Z,16.85
2022-10-20T00:13:26.536Z,17.60
2022-10-20T00:15:55.291Z,14.30
2022-10-20T00:18:23.603Z,13.77
2022-10-20T00:20:51.060Z,13.32
2022-10-20T00:23:18.243Z,13.65
2022-10-20T00:25:45.130Z,13.00
2022-10-20T00:30:50.950Z,13.07
2022-10-20T00:33:17.856Z,15.63
2022-10-20T00:35:44.586Z,13.52
2022-10-20T00:38:11.369Z,15.07
2022-10-20T00:40:39.398Z,12.75
2022-10-20T00:43:14.688Z,15.38
2022-10-20T00:45:43.512Z,18.75
2022-10-20T00:48:16.669Z,11.60
2022-10-20T00:50:49.856Z,14.23
2022-10-20T00:53:25.419Z,12.95
2022-10-20T00:55:55.427Z,14.45
2022-10-20T00:58:22.451Z,13.00
2022-10-20T01:00:53.315Z,16.98
2022-10-20T01:03:25.789Z,12.57
2022-10-20T01:05:52.581Z,11.63
2022-10-20T01:08:19.406Z,13.75
2022-10-20T01:11:18.584Z,14.25
2022-10-20T01:13:57.672Z,12.43
2022-10-20T01:16:27.491Z,14.00
2022-10-20T01:19:19.551Z,12.60
2022-10-20T01:21:56.081Z,10.18
2022-10-20T01:24:48.236Z,13.68
2022-10-20T01:27:25.460Z,12.10
2022-10-20T01:30:00.653Z,17.33
2022-10-20T01:32:52.378Z,13.57
2022-10-20T01:35:23.588Z,11.00
2022-10-20T01:38:11.574Z,13.15
2022-10-20T01:40:47.807Z,13.65
2022-10-20T01:43:17.591Z,14.68
2022-10-20T01:45:48.212Z,15.88
2022-10-20T01:48:18.623Z,14.82
2022-10-20T01:50:47.232Z,10.23
2022-10-20T01:53:14.006Z,15.10
2022-10-20T01:55:40.907Z,17.50
2022-10-20T01:58:39.104Z,12.07
2022-10-20T02:01:41.083Z,11.65
2022-10-20T02:04:10.256Z,12.80
2022-10-20T02:06:58.074Z,14.68
2022-10-20T02:09:36.769Z,14.57
2022-10-20T02:12:08.740Z,19.77
2022-10-20T02:14:37.297Z,11.52
2022-10-20T02:17:10.753Z,13.35
2022-10-20T02:19:42.414Z,13.55
2022-10-20T02:22:11.143Z,11.43
2022-10-20T02:24:40.499Z,12.77
2022-10-20T02:27:17.152Z,13.95
2022-10-20T02:29:54.633Z,10.77
2022-10-20T02:32:23.397Z,13.40
2022-10-20T02:34:50.261Z,12.82
2022-10-20T02:39:48.905Z,10.68
2022-10-20T02:42:19.214Z,14.50
2022-10-20T02:44:46.047Z,11.32
2022-10-20T02:47:13.037Z,9.63
2022-10-20T02:52:07.122Z,13.63
2022-10-20T02:54:34.044Z,12.80
2022-10-20T02:59:28.321Z,14.73
2022-10-20T03:01:55.426Z,11.02
2022-10-20T03:04:22.688Z,12.57
2022-10-20T03:06:49.784Z,13.65
2022-10-20T03:11:43.320Z,13.90
2022-10-20T03:14:11.168Z,14.30
2022-10-20T03:16:38.176Z,12.93
2022-10-20T03:21:36.064Z,14.55
2022-10-20T03:26:29.919Z,16.33
2022-10-20T03:28:56.725Z,10.85
2022-10-20T03:31:23.651Z,13.52
2022-10-20T03:33:50.472Z,10.65
2022-10-20T03:36:17.186Z,15.77
2022-10-20T03:38:44.222Z,15.70
2022-10-20T03:43:39.543Z,14.63
2022-10-20T03:46:09.444Z,15.43
2022-10-20T03:48:38.013Z,12.82
2022-10-20T03:51:05.720Z,15.15
2022-10-20T03:53:33.167Z,11.63
2022-10-20T03:56:06.820Z,14.63
2022-10-20T03:58:33.703Z,12.38
2022-10-20T04:01:00.777Z,14.82
2022-10-20T04:05:54.329Z,13.73
2022-10-20T04:08:21.074Z,13.00
2022-10-20T04:10:49.193Z,18.80
2022-10-20T04:13:16.169Z,13.93
2022-10-20T04:15:43.039Z,13.20
2022-10-20T04:20:38.295Z,18.13
2022-10-20T04:23:07.603Z,16.00
2022-10-20T04:25:34.262Z,15.02
2022-10-20T04:28:00.935Z,16.77
2022-10-20T04:30:27.778Z,13.68
2022-10-20T04:32:54.481Z,13.63
2022-10-20T04:35:21.213Z,12.02
2022-10-20T04:37:48.110Z,15.50
2022-10-20T04:40:14.924Z,12.68
2022-10-20T04:42:41.672Z,14.68
2022-10-20T04:45:08.843Z,13.00
2022-10-20T04:47:37.748Z,14.43
2022-10-20T04:50:05.911Z,21.05
2022-10-20T04:52:32.672Z,13.90
2022-10-20T04:54:59.359Z,13.55
2022-10-20T04:57:26.386Z,16.30
2022-10-20T05:02:19.647Z,13.38
2022-10-20T05:04:46.849Z,15.15
2022-10-20T05:07:13.515Z,13.50
2022-10-20T05:09:40.217Z,12.15
2022-10-20T05:12:07.006Z,17.80
2022-10-20T05:14:33.908Z,14.45
2022-10-20T05:17:00.535Z,12.80
2022-10-20T05:19:27.218Z,14.38
2022-10-20T05:21:53.971Z,13.50
2022-10-20T05:24:22.107Z,15.15
2022-10-20T05:26:50.429Z,12.30
2022-10-20T05:29:17.165Z,16.25
2022-10-20T05:31:44.628Z,13.45
2022-10-20T05:34:11.782Z,13.98
2022-10-20T05:36:38.924Z,13.05
2022-10-20T05:39:05.972Z,15.55
2022-10-20T05:41:37.792Z,17.70
2022-10-20T05:44:08.504Z,17.33
2022-10-20T05:46:38.346Z,15.07
2022-10-20T05:49:05.111Z,14.23
2022-10-20T05:51:35.553Z,15.73
2022-10-20T05:54:03.328Z,14.25
2022-10-20T05:56:31.261Z,20.48
2022-10-20T05:58:58.181Z,16.05
2022-10-20T06:01:28.185Z,15.02
2022-10-20T06:03:59.419Z,16.88
2022-10-20T06:06:30.943Z,13.93
2022-10-20T06:08:59.613Z,20.17
2022-10-20T06:11:26.850Z,15.60
2022-10-20T06:13:54.043Z,14.35
2022-10-20T06:16:22.777Z,18.90
2022-10-20T06:18:50.034Z,17.30
2022-10-20T06:21:25.134Z,16.42
2022-10-20T06:23:52.306Z,17.40
2022-10-20T06:26:21.909Z,17.70
2022-10-20T06:28:51.048Z,19.80
2022-10-20T06:31:24.821Z,17.42
2022-10-20T06:33:52.575Z,16.08
2022-10-20T06:36:20.813Z,23.15
2022-10-20T06:38:48.156Z,18.88
2022-10-20T06:41:17.314Z,19.20
2022-10-20T06:43:44.924Z,18.30
2022-10-20T06:46:15.352Z,22.73
2022-10-20T06:48:42.628Z,22.13
2022-10-20T06:51:15.203Z,21.67
2022-10-20T06:53:46.526Z,20.23
2022-10-20T06:56:24.908Z,20.30
2022-10-20T06:58:54.373Z,20.02
2022-10-20T07:01:26.500Z,22.17
2022-10-20T07:03:55.606Z,20.60
2022-10-20T07:06:28.580Z,24.17
2022-10-20T07:08:56.535Z,20.60
2022-10-20T07:11:30.690Z,21.17
2022-10-20T07:14:02.196Z,21.13
2022-10-20T07:16:31.223Z,20.50
2022-10-20T07:18:58.473Z,19.52
2022-10-20T07:21:32.272Z,22.90
2022-10-20T07:24:03.863Z,21.38
2022-10-20T07:26:32.904Z,20.73
2022-10-20T07:29:01.427Z,20.38
2022-10-20T07:31:33.671Z,22.80
2022-10-20T07:34:13.382Z,19.83
2022-10-20T07:36:43.145Z,21.17
2022-10-20T07:39:11.894Z,23.67
2022-10-20T07:41:39.627Z,20.08
2022-10-20T07:44:07.685Z,21.88
2022-10-20T07:46:34.873Z,21.05
2022-10-20T07:51:48.555Z,26.05
2022-10-20T07:54:15.383Z,22.75
2022-10-20T07:56:43.219Z,22.50
2022-10-20T07:59:11.540Z,19.92
2022-10-20T08:01:38.901Z,22.55
2022-10-20T08:04:05.768Z,23.52
2022-10-20T08:06:32.819Z,19.63
2022-10-20T08:09:00.314Z,23.73
2022-10-20T08:11:27.576Z,21.08
2022-10-20T08:13:54.489Z,19.25
2022-10-20T08:19:06.981Z,25.40
2022-10-20T08:21:34.092Z,21.20
2022-10-20T08:24:02.481Z,24.10
2022-10-20T08:26:29.292Z,22.08
2022-10-20T08:31:23.443Z,25.02
2022-10-20T08:33:52.923Z,20.92
2022-10-20T08:36:20.893Z,19.65
2022-10-20T08:38:47.859Z,19.38
2022-10-20T08:43:51.796Z,18.42
2022-10-20T08:46:20.917Z,17.35
2022-10-20T08:48:48.748Z,21.17
2022-10-20T08:51:20.812Z,20.20
2022-10-20T08:53:49.443Z,20.85
2022-10-20T08:56:19.072Z,22.25
2022-10-20T08:58:46.511Z,20.25
2022-10-20T09:01:33.041Z,17.83
2022-10-20T09:04:09.725Z,16.60
2022-10-20T09:06:36.580Z,18.48
2022-10-20T09:11:38.063Z,17.42
2022-10-20T09:14:04.832Z,20.30
2022-10-20T09:19:25.237Z,20.58
2022-10-20T09:21:57.455Z,17.75
2022-10-20T09:24:27.466Z,16.60
2022-10-20T09:27:01.456Z,19.48
2022-10-20T09:29:36.594Z,15.70
2022-10-20T09:32:22.491Z,14.93
2022-10-20T09:34:50.013Z,16.52
2022-10-20T09:37:19.713Z,15.90
2022-10-20T09:39:47.678Z,18.45
2022-10-20T09:42:21.869Z,16.33
2022-10-20T09:45:08.893Z,14.25
2022-10-20T09:47:35.595Z,15.25
2022-10-20T09:50:05.906Z,15.90
2022-10-20T09:52:47.312Z,15.10
2022-10-20T09:55:27.034Z,15.32
2022-10-20T09:57:55.728Z,16.02
2022-10-20T10:00:36.845Z,14.88
2022-10-20T10:03:10.281Z,17.17
2022-10-20T10:05:37.322Z,14.85
2022-10-20T10:08:04.329Z,16.30
2022-10-20T10:10:31.993Z,18.00
2022-10-20T10:13:01.140Z,19.80
2022-10-20T10:15:37.320Z,17.83
2022-10-20T10:18:22.877Z,18.58
2022-10-20T10:21:01.517Z,17.88
2022-10-20T10:23:31.015Z,18.73
2022-10-20T10:26:00.767Z,19.83
2022-10-20T10:28:33.319Z,18.70
2022-10-20T10:31:18.142Z,22.33
2022-10-20T10:33:44.981Z,17.75
2022-10-20T10:38:41.824Z,19.00
2022-10-20T10:44:23.240Z,20.02
2022-10-20T10:47:09.973Z,21.70
2022-10-20T10:50:05.874Z,20.00
2022-10-20T10:52:54.209Z,22.17
2022-10-20T10:55:47.191Z,23.17
2022-10-20T10:58:26.870Z,18.20
2022-10-20T11:01:03.450Z,19.38
2022-10-20T11:03:39.855Z,22.55
2022-10-20T11:06:06.708Z,18.03
2022-10-20T11:09:08.552Z,17.25
2022-10-20T11:11:41.347Z,14.75
2022-10-20T11:14:43.010Z,15.38
2022-10-20T11:17:12.431Z,20.80
2022-10-20T11:20:00.459Z,16.17
2022-10-20T11:22:42.269Z,17.15
2022-10-20T11:25:30.192Z,16.38
2022-10-20T11:27:59.065Z,15.82
2022-10-20T11:30:27.404Z,19.30
2022-10-20T11:32:54.534Z,17.50
2022-10-20T11:35:42.249Z,13.35
2022-10-20T11:38:31.282Z,16.23
2022-10-20T11:41:09.717Z,17.13
2022-10-20T11:43:46.153Z,20.15
2022-10-20T11:46:17.536Z,17.77
2022-10-20T11:48:55.116Z,18.67
2022-10-20T11:51:31.156Z,22.13
2022-10-20T11:54:27.498Z,16.50
2022-10-20T11:57:23.787Z,16.27
2022-10-20T12:00:28.230Z,18.23
2022-10-20T12:03:19.177Z,15.07
2022-10-20T12:06:23.545Z,17.90
2022-10-20T12:09:02.478Z,18.73
2022-10-20T12:12:07.465Z,19.52
2022-10-20T12:14:39.501Z,18.67
2022-10-20T12:17:15.596Z,15.90
2022-10-20T12:19:42.320Z,14.77
2022-10-20T12:22:14.849Z,16.35
2022-10-20T12:24:50.865Z,17.75
2022-10-20T12:27:19.227Z,16.13
2022-10-20T12:29:51.011Z,25.10
2022-10-20T12:32:27.769Z,17.92
2022-10-20T12:35:00.572Z,14.77
2022-10-20T12:37:33.203Z,14.57
2022-10-20T12:40:23.691Z,17.63
2022-10-20T12:42:54.398Z,16.20
2022-10-20T12:45:35.530Z,19.27
2022-10-20T12:48:04.150Z,20.67
2022-10-20T12:50:30.769Z,17.30
2022-10-20T12:53:11.626Z,16.58
2022-10-20T12:55:41.855Z,17.73
2022-10-20T12:58:18.183Z,15.75
2022-10-20T13:00:47.682Z,15.88
2022-10-20T13:03:46.914Z,17.02
2022-10-20T13:06:22.771Z,17.35
2022-10-20T13:09:05.142Z,18.85
2022-10-20T13:11:38.215Z,16.35
2022-10-20T13:14:33.037Z,19.63
2022-10-20T13:17:35.171Z,19.52
2022-10-20T13:20:23.764Z,17.38
2022-10-20T13:22:53.756Z,16.27
2022-10-20T13:25:34.431Z,17.63
2022-10-20T13:28:23.208Z,19.70
2022-10-20T13:30:55.919Z,24.38
2022-10-20T13:33:44.460Z,28.50
2022-10-20T13:36:29.883Z,18.48
2022-10-20T13:39:15.462Z,18.75
2022-10-20T13:41:58.176Z,17.75
2022-10-20T13:44:51.443Z,19.63
2022-10-20T13:48:02.881Z,19.15
2022-10-20T13:50:35.143Z,22.50
2022-10-20T13:53:29.423Z,20.65
2022-10-20T13:56:02.057Z,24.33
2022-10-20T13:58:28.936Z,21.10
2022-10-20T14:01:02.898Z,21.30
2022-10-20T14:03:41.605Z,23.13
2022-10-20T14:06:32.275Z,18.50
2022-10-20T14:09:15.800Z,24.48
2022-10-20T14:11:44.822Z,21.35
2022-10-20T14:14:18.184Z,21.73
2022-10-20T14:17:02.141Z,23.25
2022-10-20T14:19:30.597Z,22.60
2022-10-20T14:22:09.514Z,23.77
2022-10-20T14:24:45.420Z,23.02
2022-10-20T14:27:38.880Z,18.50
2022-10-20T14:30:07.364Z,20.52
2022-10-20T14:32:39.882Z,20.33
2022-10-20T14:35:25.909Z,22.10
2022-10-20T14:38:06.203Z,20.42
2022-10-20T14:40:37.831Z,21.35
2022-10-20T14:43:18.103Z,20.23
2022-10-20T14:46:01.235Z,18.90
2022-10-20T14:48:32.219Z,24.20
2022-10-20T14:50:58.916Z,21.33
2022-10-20T14:53:33.843Z,23.77
2022-10-20T14:56:02.553Z,24.17
2022-10-20T14:59:00.998Z,27.42
2022-10-20T15:01:34.156Z,27.70
2022-10-20T15:04:22.978Z,22.92
2022-10-20T15:06:49.956Z,23.02
2022-10-20T15:09:22.000Z,27.88
2022-10-20T15:11:49.301Z,29.52
2022-10-20T15:14:17.278Z,28.20
2022-10-20T15:16:47.478Z,31.73
2022-10-20T15:19:28.933Z,29.48
2022-10-20T15:21:59.816Z,24.20
2022-10-20T15:24:27.726Z,27.02
2022-10-20T15:26:55.346Z,24.08
2022-10-20T15:29:22.079Z,29.15
2022-10-20T15:31:48.895Z,26.50
2022-10-20T15:36:47.565Z,27.85
2022-10-20T15:39:15.694Z,29.60
2022-10-20T15:41:42.885Z,26.60
2022-10-20T15:44:17.231Z,21.50
2022-10-20T15:46:47.239Z,27.77
2022-10-20T15:49:14.812Z,26.48
2022-10-20T15:51:44.406Z,29.98
2022-10-20T15:54:16.443Z,23.00
2022-10-20T15:56:43.665Z,24.55
2022-10-20T15:59:10.509Z,24.05
2022-10-20T16:04:23.076Z,27.77
2022-10-20T16:06:52.952Z,34.10
2022-10-20T16:09:20.754Z,32.90
2022-10-20T16:11:47.714Z,26.35
2022-10-20T16:14:17.862Z,26.92
2022-10-20T16:16:47.349Z,24.60
2022-10-20T16:19:14.256Z,26.80
2022-10-20T16:21:41.473Z,29.48
2022-10-20T16:24:08.259Z,33.22
2022-10-20T16:29:01.940Z,28.13
2022-10-20T16:33:59.979Z,24.25
2022-10-20T16:36:26.863Z,24.40
2022-10-20T16:41:23.806Z,25.13
2022-10-20T16:43:50.673Z,27.00
2022-10-20T16:48:47.708Z,28.92
2022-10-20T16:51:16.178Z,36.95
2022-10-20T16:53:43.952Z,32.92
2022-10-20T16:56:15.201Z,30.55
2022-10-20T16:58:45.037Z,26.50
2022-10-20T17:01:13.265Z,34.15
2022-10-20T17:03:47.027Z,34.20
2022-10-20T17:06:16.093Z,26.92
2022-10-20T17:08:42.832Z,29.60
2022-10-20T17:11:15.554Z,29.75
2022-10-20T17:13:42.440Z,25.38
2022-10-20T17:18:41.923Z,27.92
2022-10-20T17:21:09.784Z,26.75
2022-10-20T17:23:41.793Z,31.58
2022-10-20T17:26:13.994Z,30.88
2022-10-20T17:28:41.154Z,27.77
2022-10-20T17:31:10.164Z,34.85
2022-10-20T17:33:38.263Z,28.08
2022-10-20T17:36:06.248Z,51.10
2022-10-20T17:38:33.393Z,59.30
2022-10-20T17:41:08.592Z,43.08
2022-10-20T17:43:36.069Z,39.50
2022-10-20T17:46:11.727Z,37.90
2022-10-20T17:48:39.120Z,35.67
2022-10-20T17:51:12.992Z,37.13
2022-10-20T17:53:45.426Z,39.10
2022-10-20T17:56:31.435Z,32.25
2022-10-20T17:58:59.647Z,38.53
2022-10-20T18:01:29.767Z,33.15
2022-10-20T18:04:01.844Z,38.05
2022-10-20T18:06:34.173Z,43.45
2022-10-20T18:09:04.863Z,34.55
2022-10-20T18:11:33.873Z,37.15
2022-10-20T18:14:01.530Z,33.13
2022-10-20T18:16:30.610Z,33.75
2022-10-20T18:21:26.780Z,33.47
2022-10-20T18:23:58.794Z,33.78
2022-10-20T18:26:25.695Z,29.63
2022-10-20T18:31:25.515Z,32.28
2022-10-20T18:33:57.213Z,33.85
2022-10-20T18:36:24.981Z,31.52
2022-10-20T18:38:53.468Z,37.10
2022-10-20T18:41:25.848Z,31.70
2022-10-20T18:43:57.791Z,26.17
2022-10-20T18:46:27.688Z,27.65
2022-10-20T18:48:54.578Z,25.42
2022-10-20T18:53:52.759Z,27.02
2022-10-20T18:56:22.166Z,39.33
2022-10-20T18:58:54.431Z,31.05
2022-10-20T19:01:23.798Z,36.17
2022-10-20T19:03:52.600Z,25.92
2022-10-20T19:06:27.645Z,32.42
2022-10-20T19:08:56.852Z,37.58
2022-10-20T19:11:26.745Z,37.00
2022-10-20T19:13:54.245Z,38.33
2022-10-20T19:16:24.188Z,32.25
2022-10-20T19:18:53.538Z,47.25
2022-10-20T19:21:21.849Z,30.00
2022-10-20T19:23:56.126Z,36.65
2022-10-20T19:26:26.229Z,32.08
2022-10-20T19:29:17.702Z,32.90
2022-10-20T19:31:56.200Z,36.35
2022-10-20T19:34:26.828Z,32.38
2022-10-20T19:36:53.870Z,33.25
2022-10-20T19:41:58.054Z,35.85
2022-10-20T19:44:25.606Z,43.63
2022-10-20T19:46:52.538Z,42.67
2022-10-20T19:49:21.024Z,37.67
2022-10-20T19:51:47.895Z,42.05
2022-10-20T19:56:41.992Z,39.83
2022-10-20T19:59:09.271Z,38.67
2022-10-20T20:01:37.379Z,35.55
2022-10-20T20:04:04.867Z,37.53
2022-10-20T20:06:32.801Z,36.03
2022-10-20T20:09:02.483Z,37.90
2022-10-20T20:11:31.050Z,29.48
2022-10-20T20:14:04.689Z,30.33
2022-10-20T20:16:31.965Z,27.42
2022-10-20T20:18:58.967Z,26.13
2022-10-20T20:21:27.009Z,25.65
2022-10-20T20:23:59.906Z,25.88
2022-10-20T20:26:36.395Z,31.70
2022-10-20T20:29:04.752Z,31.95
2022-10-20T20:31:32.025Z,33.40
2022-10-20T20:33:58.992Z,27.50
2022-10-20T20:38:59.224Z,28.67
2022-10-20T20:41:28.280Z,26.15
2022-10-20T20:43:55.140Z,26.33
2022-10-20T20:48:50.237Z,29.70
2022-10-20T20:51:17.657Z,27.75
2022-10-20T20:53:44.574Z,32.13
2022-10-20T20:58:41.935Z,27.95
2022-10-20T21:01:13.214Z,29.40
2022-10-20T21:03:40.810Z,32.05
2022-10-20T21:06:12.004Z,29.35
2022-10-20T21:08:40.835Z,26.77
2022-10-20T21:11:08.511Z,22.48
2022-10-20T21:13:36.215Z,26.63
2022-10-20T21:16:18.010Z,24.60
2022-10-20T21:18:48.189Z,25.88
2022-10-20T21:21:17.975Z,26.80
2022-10-20T21:23:45.453Z,29.23
2022-10-20T21:26:14.656Z,31.17
2022-10-20T21:28:41.960Z,28.08
2022-10-20T21:31:14.876Z,29.85
2022-10-20T21:33:42.892Z,24.92
2022-10-20T21:36:15.679Z,25.75
2022-10-20T21:38:43.556Z,33.75
2022-10-20T21:41:13.855Z,38.17
2022-10-20T21:43:43.612Z,29.45
2022-10-20T21:46:10.450Z,28.00
2022-10-20T21:51:10.746Z,27.75
2022-10-20T21:53:38.479Z,26.55
2022-10-20T21:56:06.272Z,39.22
2022-10-20T21:58:33.539Z,29.17
2022-10-20T22:01:00.434Z,29.05
2022-10-20T22:03:27.331Z,29.75
2022-10-20T22:08:21.030Z,37.50
2022-10-20T22:13:14.517Z,26.10
2022-10-20T22:15:41.392Z,27.85
2022-10-20T22:18:08.169Z,30.20
2022-10-20T22:20:38.287Z,27.08
2022-10-20T22:23:06.197Z,31.13
2022-10-20T22:25:37.730Z,23.75
2022-10-20T22:28:05.792Z,24.55
2022-10-20T22:30:33.663Z,24.20
2022-10-20T22:33:01.006Z,26.85
2022-10-20T22:35:28.331Z,21.33
2022-10-20T22:37:55.244Z,25.75
2022-10-20T22:42:48.533Z,23.27
2022-10-20T22:45:15.368Z,24.95
2022-10-20T22:47:42.083Z,30.27
2022-10-20T22:50:09.034Z,22.15
2022-10-20T22:55:02.775Z,23.98
2022-10-20T22:59:56.336Z,32.78
2022-10-20T23:02:23.063Z,25.13
2022-10-20T23:04:49.823Z,31.25
2022-10-20T23:07:16.560Z,22.60
2022-10-20T23:09:43.474Z,24.60
2022-10-20T23:14:36.930Z,26.48
2022-10-20T23:17:03.772Z,26.95
2022-10-20T23:21:57.730Z,23.83
2022-10-20T23:24:24.453Z,20.63
2022-10-20T23:26:51.166Z,28.83
2022-10-20T23:29:17.885Z,25.35
2022-10-20T23:31:44.524Z,25.92
2022-10-20T23:34:11.364Z,21.95
2022-10-20T23:36:39.181Z,21.52
2022-10-20T23:39:06.376Z,28.60
2022-10-20T23:43:59.944Z,24.30
2022-10-20T23:48:54.664Z,24.10
2022-10-20T23:51:21.339Z,33.50
2022-10-20T23:53:48.079Z,29.88
2022-10-20T23:56:14.872Z,23.95
